sensor_id;sensor_type;location;lat;lon;timestamp;P1;durP1;ratioP1;P2;durP2;ratioP2
5774;SDS011;2913;51.120;6.772;2022-12-07T00:01:24;33.25;;;16.45;;
5774;SDS011;2913;51.120;6.772;2022-12-07T00:03:58;33.00;;;16.65;;
5774;SDS011;2913;51.120;6.772;2022-12-07T00:08:57;30.10;;;15.65;;
5774;SDS011;2913;51.120;6.772;2022-12-07T00:11:23;33.08;;;17.10;;
5774;SDS011;2913;51.120;6.772;2022-12-07T00:13:53;37.83;;;16.80;;
5774;SDS011;2913;51.120;6.772;2022-12-07T00:16:23;34.10;;;16.55;;
5774;SDS011;2913;51.120;6.772;2022-12-07T00:18:50;35.50;;;16.45;;
5774;SDS011;2913;51.120;6.772;2022-12-07T00:21:18;40.97;;;17.35;;
5774;SDS011;2913;51.120;6.772;2022-12-07T00:23:48;29.27;;;16.60;;
5774;SDS011;2913;51.120;6.772;2022-12-07T00:26:20;32.20;;;15.90;;
5774;SDS011;2913;51.120;6.772;2022-12-07T00:28:48;32.00;;;16.08;;
5774;SDS011;2913;51.120;6.772;2022-12-07T00:31:18;32.55;;;15.73;;
5774;SDS011;2913;51.120;6.772;2022-12-07T00:33:48;34.78;;;16.50;;
5774;SDS011;2913;51.120;6.772;2022-12-07T00:36:19;34.38;;;16.63;;
5774;SDS011;2913;51.120;6.772;2022-12-07T00:38:49;35.13;;;15.95;;
5774;SDS011;2913;51.120;6.772;2022-12-07T00:41:16;32.40;;;15.65;;
5774;SDS011;2913;51.120;6.772;2022-12-07T00:43:48;38.58;;;15.63;;
5774;SDS011;2913;51.120;6.772;2022-12-07T00:46:17;29.40;;;15.90;;
5774;SDS011;2913;51.120;6.772;2022-12-07T00:48:44;33.95;;;14.57;;
5774;SDS011;2913;51.120;6.772;2022-12-07T00:51:11;31.70;;;15.52;;
5774;SDS011;2913;51.120;6.772;2022-12-07T00:53:40;35.97;;;15.70;;
5774;SDS011;2913;51.120;6.772;2022-12-07T00:56:06;33.13;;;16.52;;
5774;SDS011;2913;51.120;6.772;2022-12-07T00:58:32;36.90;;;17.55;;
5774;SDS011;2913;51.120;6.772;2022-12-07T01:01:03;36.78;;;17.40;;
5774;SDS011;2913;51.120;6.772;2022-12-07T01:03:32;35.37;;;16.93;;
5774;SDS011;2913;51.120;6.772;2022-12-07T01:06:00;39.65;;;17.50;;
5774;SDS011;2913;51.120;6.772;2022-12-07T01:08:27;39.95;;;19.17;;
5774;SDS011;2913;51.120;6.772;2022-12-07T01:11:03;37.25;;;18.73;;
5774;SDS011;2913;51.120;6.772;2022-12-07T01:13:31;37.67;;;17.75;;
5774;SDS011;2913;51.120;6.772;2022-12-07T01:15:58;40.45;;;18.92;;
5774;SDS011;2913;51.120;6.772;2022-12-07T01:18:29;41.05;;;19.33;;
5774;SDS011;2913;51.120;6.772;2022-12-07T01:23:29;42.00;;;20.10;;
5774;SDS011;2913;51.120;6.772;2022-12-07T01:25:59;43.80;;;21.17;;
5774;SDS011;2913;51.120;6.772;2022-12-07T01:28:27;40.95;;;19.10;;
5774;SDS011;2913;51.120;6.772;2022-12-07T01:30:59;40.53;;;19.08;;
5774;SDS011;2913;51.120;6.772;2022-12-07T01:33:26;40.38;;;20.65;;
5774;SDS011;2913;51.120;6.772;2022-12-07T01:36:07;41.63;;;19.42;;
5774;SDS011;2913;51.120;6.772;2022-12-07T01:38:38;45.80;;;20.90;;
5774;SDS011;2913;51.120;6.772;2022-12-07T01:41:06;49.60;;;20.85;;
5774;SDS011;2913;51.120;6.772;2022-12-07T01:43:32;39.67;;;19.65;;
5774;SDS011;2913;51.120;6.772;2022-12-07T01:45:59;53.78;;;21.02;;
5774;SDS011;2913;51.120;6.772;2022-12-07T01:48:32;51.38;;;21.73;;
5774;SDS011;2913;51.120;6.772;2022-12-07T01:51:05;43.05;;;20.33;;
5774;SDS011;2913;51.120;6.772;2022-12-07T01:53:36;40.17;;;20.30;;
5774;SDS011;2913;51.120;6.772;2022-12-07T01:56:07;44.95;;;22.25;;
5774;SDS011;2913;51.120;6.772;2022-12-07T01:58:40;46.67;;;20.85;;
5774;SDS011;2913;51.120;6.772;2022-12-07T02:01:05;51.05;;;20.33;;
5774;SDS011;2913;51.120;6.772;2022-12-07T02:03:32;43.47;;;22.30;;
5774;SDS011;2913;51.120;6.772;2022-12-07T02:06:07;45.75;;;21.80;;
5774;SDS011;2913;51.120;6.772;2022-12-07T02:08:35;46.72;;;22.13;;
5774;SDS011;2913;51.120;6.772;2022-12-07T02:11:04;41.30;;;21.35;;
5774;SDS011;2913;51.120;6.772;2022-12-07T02:16:08;41.90;;;20.77;;
5774;SDS011;2913;51.120;6.772;2022-12-07T02:21:46;43.08;;;21.90;;
5774;SDS011;2913;51.120;6.772;2022-12-07T02:24:36;40.00;;;20.45;;
5774;SDS011;2913;51.120;6.772;2022-12-07T02:30:02;39.45;;;20.38;;
5774;SDS011;2913;51.120;6.772;2022-12-07T02:35:24;49.63;;;21.88;;
5774;SDS011;2913;51.120;6.772;2022-12-07T02:38:26;46.10;;;21.63;;
5774;SDS011;2913;51.120;6.772;2022-12-07T02:41:03;43.28;;;21.50;;
5774;SDS011;2913;51.120;6.772;2022-12-07T02:43:34;45.20;;;21.52;;
5774;SDS011;2913;51.120;6.772;2022-12-07T02:46:14;48.72;;;21.90;;
5774;SDS011;2913;51.120;6.772;2022-12-07T02:49:07;47.63;;;21.27;;
5774;SDS011;2913;51.120;6.772;2022-12-07T02:51:38;39.45;;;21.05;;
5774;SDS011;2913;51.120;6.772;2022-12-07T02:54:13;44.97;;;21.23;;
5774;SDS011;2913;51.120;6.772;2022-12-07T02:59:40;43.53;;;22.35;;
5774;SDS011;2913;51.120;6.772;2022-12-07T03:02:46;47.67;;;21.70;;
5774;SDS011;2913;51.120;6.772;2022-12-07T03:16:20;45.40;;;22.27;;
5774;SDS011;2913;51.120;6.772;2022-12-07T03:21:38;50.58;;;21.65;;
5774;SDS011;2913;51.120;6.772;2022-12-07T03:24:09;43.60;;;22.05;;
5774;SDS011;2913;51.120;6.772;2022-12-07T03:29:11;41.13;;;21.45;;
5774;SDS011;2913;51.120;6.772;2022-12-07T03:34:18;46.42;;;21.73;;
5774;SDS011;2913;51.120;6.772;2022-12-07T03:37:07;49.20;;;22.77;;
5774;SDS011;2913;51.120;6.772;2022-12-07T03:40:05;43.92;;;21.25;;
5774;SDS011;2913;51.120;6.772;2022-12-07T03:42:33;43.33;;;21.67;;
5774;SDS011;2913;51.120;6.772;2022-12-07T03:45:00;49.88;;;22.50;;
5774;SDS011;2913;51.120;6.772;2022-12-07T03:47:31;43.08;;;21.48;;
5774;SDS011;2913;51.120;6.772;2022-12-07T03:50:08;38.00;;;20.10;;
5774;SDS011;2913;51.120;6.772;2022-12-07T03:53:03;45.03;;;20.83;;
5774;SDS011;2913;51.120;6.772;2022-12-07T03:55:37;45.65;;;21.45;;
5774;SDS011;2913;51.120;6.772;2022-12-07T03:58:07;41.53;;;21.33;;
5774;SDS011;2913;51.120;6.772;2022-12-07T04:00:36;41.13;;;20.60;;
5774;SDS011;2913;51.120;6.772;2022-12-07T04:03:02;39.17;;;20.45;;
5774;SDS011;2913;51.120;6.772;2022-12-07T04:05:28;37.72;;;19.70;;
5774;SDS011;2913;51.120;6.772;2022-12-07T04:07:54;39.97;;;19.63;;
5774;SDS011;2913;51.120;6.772;2022-12-07T04:10:20;40.90;;;20.33;;
5774;SDS011;2913;51.120;6.772;2022-12-07T04:12:45;46.80;;;20.98;;
5774;SDS011;2913;51.120;6.772;2022-12-07T04:15:13;44.00;;;20.63;;
5774;SDS011;2913;51.120;6.772;2022-12-07T04:17:39;43.70;;;19.95;;
5774;SDS011;2913;51.120;6.772;2022-12-07T04:20:04;41.88;;;20.23;;
5774;SDS011;2913;51.120;6.772;2022-12-07T04:22:31;43.00;;;19.33;;
5774;SDS011;2913;51.120;6.772;2022-12-07T04:24:56;44.45;;;20.52;;
5774;SDS011;2913;51.120;6.772;2022-12-07T04:27:22;43.38;;;20.30;;
5774;SDS011;2913;51.120;6.772;2022-12-07T04:29:50;38.40;;;19.45;;
5774;SDS011;2913;51.120;6.772;2022-12-07T04:32:15;38.28;;;20.02;;
5774;SDS011;2913;51.120;6.772;2022-12-07T04:34:41;39.55;;;19.63;;
5774;SDS011;2913;51.120;6.772;2022-12-07T04:37:07;37.20;;;19.48;;
5774;SDS011;2913;51.120;6.772;2022-12-07T04:39:35;37.42;;;20.08;;
5774;SDS011;2913;51.120;6.772;2022-12-07T04:42:01;37.22;;;18.63;;
5774;SDS011;2913;51.120;6.772;2022-12-07T04:44:27;39.83;;;20.40;;
5774;SDS011;2913;51.120;6.772;2022-12-07T04:46:56;37.53;;;18.60;;
5774;SDS011;2913;51.120;6.772;2022-12-07T04:49:27;35.13;;;18.88;;
5774;SDS011;2913;51.120;6.772;2022-12-07T04:51:53;38.88;;;18.55;;
5774;SDS011;2913;51.120;6.772;2022-12-07T04:54:19;32.63;;;17.83;;
5774;SDS011;2913;51.120;6.772;2022-12-07T04:56:46;34.17;;;17.08;;
5774;SDS011;2913;51.120;6.772;2022-12-07T04:59:15;34.47;;;17.67;;
5774;SDS011;2913;51.120;6.772;2022-12-07T05:01:44;32.38;;;17.35;;
5774;SDS011;2913;51.120;6.772;2022-12-07T05:04:12;36.20;;;17.90;;
5774;SDS011;2913;51.120;6.772;2022-12-07T05:06:38;38.63;;;17.92;;
5774;SDS011;2913;51.120;6.772;2022-12-07T05:09:06;28.60;;;15.38;;
5774;SDS011;2913;51.120;6.772;2022-12-07T05:11:32;32.83;;;16.67;;
5774;SDS011;2913;51.120;6.772;2022-12-07T05:14:07;33.72;;;14.48;;
5774;SDS011;2913;51.120;6.772;2022-12-07T05:16:35;36.40;;;15.65;;
5774;SDS011;2913;51.120;6.772;2022-12-07T05:19:04;25.52;;;14.38;;
5774;SDS011;2913;51.120;6.772;2022-12-07T05:21:32;36.53;;;15.63;;
5774;SDS011;2913;51.120;6.772;2022-12-07T05:23:58;32.80;;;15.50;;
5774;SDS011;2913;51.120;6.772;2022-12-07T05:26:27;27.10;;;14.88;;
5774;SDS011;2913;51.120;6.772;2022-12-07T05:28:55;25.40;;;15.35;;
5774;SDS011;2913;51.120;6.772;2022-12-07T05:31:22;31.05;;;14.32;;
5774;SDS011;2913;51.120;6.772;2022-12-07T05:33:51;30.75;;;14.52;;
5774;SDS011;2913;51.120;6.772;2022-12-07T05:36:19;35.70;;;14.27;;
5774;SDS011;2913;51.120;6.772;2022-12-07T05:38:44;30.38;;;15.75;;
5774;SDS011;2913;51.120;6.772;2022-12-07T05:41:16;25.25;;;13.88;;
5774;SDS011;2913;51.120;6.772;2022-12-07T05:44:04;32.72;;;14.52;;
5774;SDS011;2913;51.120;6.772;2022-12-07T05:46:30;31.05;;;14.30;;
5774;SDS011;2913;51.120;6.772;2022-12-07T05:48:56;35.08;;;12.90;;
5774;SDS011;2913;51.120;6.772;2022-12-07T05:51:23;27.70;;;12.98;;
5774;SDS011;2913;51.120;6.772;2022-12-07T05:53:49;29.02;;;13.02;;
5774;SDS011;2913;51.120;6.772;2022-12-07T05:56:14;25.27;;;12.50;;
5774;SDS011;2913;51.120;6.772;2022-12-07T05:58:40;32.15;;;13.20;;
5774;SDS011;2913;51.120;6.772;2022-12-07T06:01:24;22.10;;;12.63;;
5774;SDS011;2913;51.120;6.772;2022-12-07T06:03:50;31.95;;;12.73;;
5774;SDS011;2913;51.120;6.772;2022-12-07T06:06:18;29.02;;;14.68;;
5774;SDS011;2913;51.120;6.772;2022-12-07T06:08:44;26.98;;;13.75;;
5774;SDS011;2913;51.120;6.772;2022-12-07T06:11:09;26.77;;;13.50;;
5774;SDS011;2913;51.120;6.772;2022-12-07T06:13:54;24.77;;;13.38;;
5774;SDS011;2913;51.120;6.772;2022-12-07T06:16:19;29.38;;;13.52;;
5774;SDS011;2913;51.120;6.772;2022-12-07T06:18:45;25.92;;;12.90;;
5774;SDS011;2913;51.120;6.772;2022-12-07T06:21:10;27.73;;;13.48;;
5774;SDS011;2913;51.120;6.772;2022-12-07T06:23:38;25.42;;;13.30;;
5774;SDS011;2913;51.120;6.772;2022-12-07T06:26:04;26.67;;;13.30;;
5774;SDS011;2913;51.120;6.772;2022-12-07T06:28:30;34.72;;;14.10;;
5774;SDS011;2913;51.120;6.772;2022-12-07T06:31:02;31.92;;;14.15;;
5774;SDS011;2913;51.120;6.772;2022-12-07T06:33:28;33.15;;;14.52;;
5774;SDS011;2913;51.120;6.772;2022-12-07T06:35:54;32.58;;;14.40;;
5774;SDS011;2913;51.120;6.772;2022-12-07T06:38:22;33.05;;;14.63;;
5774;SDS011;2913;51.120;6.772;2022-12-07T06:40:48;28.65;;;13.88;;
5774;SDS011;2913;51.120;6.772;2022-12-07T06:43:15;27.58;;;14.27;;
5774;SDS011;2913;51.120;6.772;2022-12-07T06:45:41;24.38;;;13.63;;
5774;SDS011;2913;51.120;6.772;2022-12-07T06:48:07;28.55;;;14.27;;
5774;SDS011;2913;51.120;6.772;2022-12-07T06:50:34;25.38;;;14.70;;
5774;SDS011;2913;51.120;6.772;2022-12-07T06:53:02;31.88;;;14.73;;
5774;SDS011;2913;51.120;6.772;2022-12-07T06:55:30;31.52;;;14.63;;
5774;SDS011;2913;51.120;6.772;2022-12-07T06:57:56;29.15;;;14.55;;
5774;SDS011;2913;51.120;6.772;2022-12-07T07:00:24;32.97;;;14.80;;
5774;SDS011;2913;51.120;6.772;2022-12-07T07:02:50;30.58;;;14.48;;
5774;SDS011;2913;51.120;6.772;2022-12-07T07:05:15;32.22;;;14.50;;
5774;SDS011;2913;51.120;6.772;2022-12-07T07:07:41;35.58;;;15.13;;
5774;SDS011;2913;51.120;6.772;2022-12-07T07:10:07;33.42;;;15.15;;
5774;SDS011;2913;51.120;6.772;2022-12-07T07:12:38;44.50;;;14.73;;
5774;SDS011;2913;51.120;6.772;2022-12-07T07:15:06;35.15;;;15.82;;
5774;SDS011;2913;51.120;6.772;2022-12-07T07:17:32;34.55;;;15.43;;
5774;SDS011;2913;51.120;6.772;2022-12-07T07:20:00;30.90;;;15.05;;
5774;SDS011;2913;51.120;6.772;2022-12-07T07:22:26;30.08;;;15.73;;
5774;SDS011;2913;51.120;6.772;2022-12-07T07:24:52;31.70;;;16.40;;
5774;SDS011;2913;51.120;6.772;2022-12-07T07:27:19;31.35;;;15.35;;
5774;SDS011;2913;51.120;6.772;2022-12-07T07:29:47;27.70;;;15.00;;
5774;SDS011;2913;51.120;6.772;2022-12-07T07:32:13;28.20;;;15.35;;
5774;SDS011;2913;51.120;6.772;2022-12-07T07:34:41;34.42;;;15.32;;
5774;SDS011;2913;51.120;6.772;2022-12-07T07:37:09;26.63;;;14.13;;
5774;SDS011;2913;51.120;6.772;2022-12-07T07:39:37;37.53;;;16.13;;
5774;SDS011;2913;51.120;6.772;2022-12-07T07:42:05;36.13;;;16.15;;
5774;SDS011;2913;51.120;6.772;2022-12-07T07:44:33;29.55;;;14.75;;
5774;SDS011;2913;51.120;6.772;2022-12-07T07:47:00;30.35;;;15.20;;
5774;SDS011;2913;51.120;6.772;2022-12-07T07:49:30;29.95;;;16.52;;
5774;SDS011;2913;51.120;6.772;2022-12-07T07:51:58;29.23;;;14.38;;
5774;SDS011;2913;51.120;6.772;2022-12-07T07:54:24;27.00;;;14.25;;
5774;SDS011;2913;51.120;6.772;2022-12-07T07:56:49;28.02;;;15.07;;
5774;SDS011;2913;51.120;6.772;2022-12-07T07:59:17;34.75;;;16.85;;
5774;SDS011;2913;51.120;6.772;2022-12-07T08:01:45;28.60;;;14.85;;
5774;SDS011;2913;51.120;6.772;2022-12-07T08:04:11;27.58;;;13.68;;
5774;SDS011;2913;51.120;6.772;2022-12-07T08:06:39;29.58;;;13.02;;
5774;SDS011;2913;51.120;6.772;2022-12-07T08:09:07;27.45;;;13.60;;
5774;SDS011;2913;51.120;6.772;2022-12-07T08:11:33;30.77;;;13.68;;
5774;SDS011;2913;51.120;6.772;2022-12-07T08:14:01;24.58;;;13.15;;
5774;SDS011;2913;51.120;6.772;2022-12-07T08:16:27;23.38;;;12.93;;
5774;SDS011;2913;51.120;6.772;2022-12-07T08:18:52;30.23;;;13.32;;
5774;SDS011;2913;51.120;6.772;2022-12-07T08:21:18;28.58;;;12.93;;
5774;SDS011;2913;51.120;6.772;2022-12-07T08:23:46;32.20;;;13.10;;
5774;SDS011;2913;51.120;6.772;2022-12-07T08:26:13;28.67;;;13.82;;
5774;SDS011;2913;51.120;6.772;2022-12-07T08:28:42;30.80;;;13.55;;
5774;SDS011;2913;51.120;6.772;2022-12-07T08:31:16;24.83;;;13.43;;
5774;SDS011;2913;51.120;6.772;2022-12-07T08:33:44;36.50;;;15.20;;
5774;SDS011;2913;51.120;6.772;2022-12-07T08:36:12;30.27;;;14.82;;
5774;SDS011;2913;51.120;6.772;2022-12-07T08:38:41;32.60;;;14.68;;
5774;SDS011;2913;51.120;6.772;2022-12-07T08:41:07;27.35;;;14.30;;
5774;SDS011;2913;51.120;6.772;2022-12-07T08:43:33;33.60;;;14.88;;
5774;SDS011;2913;51.120;6.772;2022-12-07T08:48:30;30.77;;;15.88;;
5774;SDS011;2913;51.120;6.772;2022-12-07T08:50:57;43.35;;;16.70;;
5774;SDS011;2913;51.120;6.772;2022-12-07T08:53:25;31.88;;;15.75;;
5774;SDS011;2913;51.120;6.772;2022-12-07T08:55:53;33.15;;;15.85;;
5774;SDS011;2913;51.120;6.772;2022-12-07T08:58:20;32.08;;;15.55;;
5774;SDS011;2913;51.120;6.772;2022-12-07T09:00:51;35.13;;;15.75;;
5774;SDS011;2913;51.120;6.772;2022-12-07T09:03:18;36.95;;;15.95;;
5774;SDS011;2913;51.120;6.772;2022-12-07T09:05:44;33.33;;;15.80;;
5774;SDS011;2913;51.120;6.772;2022-12-07T09:08:10;33.75;;;15.68;;
5774;SDS011;2913;51.120;6.772;2022-12-07T09:10:36;31.02;;;16.00;;
5774;SDS011;2913;51.120;6.772;2022-12-07T09:13:03;35.65;;;15.57;;
5774;SDS011;2913;51.120;6.772;2022-12-07T09:15:31;34.58;;;15.60;;
5774;SDS011;2913;51.120;6.772;2022-12-07T09:17:57;35.78;;;15.70;;
5774;SDS011;2913;51.120;6.772;2022-12-07T09:20:22;32.00;;;15.50;;
5774;SDS011;2913;51.120;6.772;2022-12-07T09:22:50;29.05;;;15.57;;
5774;SDS011;2913;51.120;6.772;2022-12-07T09:25:16;30.45;;;14.93;;
5774;SDS011;2913;51.120;6.772;2022-12-07T09:27:41;28.70;;;15.07;;
5774;SDS011;2913;51.120;6.772;2022-12-07T09:30:07;34.60;;;16.33;;
5774;SDS011;2913;51.120;6.772;2022-12-07T09:32:35;29.52;;;15.40;;
5774;SDS011;2913;51.120;6.772;2022-12-07T09:35:01;30.80;;;15.77;;
5774;SDS011;2913;51.120;6.772;2022-12-07T09:37:27;31.33;;;14.82;;
5774;SDS011;2913;51.120;6.772;2022-12-07T09:39:59;36.53;;;15.75;;
5774;SDS011;2913;51.120;6.772;2022-12-07T09:42:39;34.88;;;15.30;;
5774;SDS011;2913;51.120;6.772;2022-12-07T09:45:24;33.95;;;15.13;;
5774;SDS011;2913;51.120;6.772;2022-12-07T09:47:52;32.45;;;14.40;;
5774;SDS011;2913;51.120;6.772;2022-12-07T09:50:23;32.67;;;14.27;;
5774;SDS011;2913;51.120;6.772;2022-12-07T09:52:53;31.85;;;15.63;;
5774;SDS011;2913;51.120;6.772;2022-12-07T09:55:22;35.80;;;13.43;;
5774;SDS011;2913;51.120;6.772;2022-12-07T09:57:52;25.63;;;12.98;;
5774;SDS011;2913;51.120;6.772;2022-12-07T10:00:19;26.23;;;12.13;;
5774;SDS011;2913;51.120;6.772;2022-12-07T10:02:52;27.60;;;12.65;;
5774;SDS011;2913;51.120;6.772;2022-12-07T10:07:50;26.77;;;12.40;;
5774;SDS011;2913;51.120;6.772;2022-12-07T10:10:37;19.50;;;11.98;;
5774;SDS011;2913;51.120;6.772;2022-12-07T10:13:17;27.02;;;11.90;;
5774;SDS011;2913;51.120;6.772;2022-12-07T10:15:52;22.27;;;12.10;;
5774;SDS011;2913;51.120;6.772;2022-12-07T10:20:59;26.88;;;10.88;;
5774;SDS011;2913;51.120;6.772;2022-12-07T10:23:29;23.42;;;13.35;;
5774;SDS011;2913;51.120;6.772;2022-12-07T10:25:54;24.95;;;11.18;;
5774;SDS011;2913;51.120;6.772;2022-12-07T10:28:22;30.33;;;12.70;;
5774;SDS011;2913;51.120;6.772;2022-12-07T10:30:49;29.52;;;10.95;;
5774;SDS011;2913;51.120;6.772;2022-12-07T10:36:20;23.90;;;12.43;;
5774;SDS011;2913;51.120;6.772;2022-12-07T10:39:10;24.58;;;11.15;;
5774;SDS011;2913;51.120;6.772;2022-12-07T10:44:24;22.13;;;11.68;;
5774;SDS011;2913;51.120;6.772;2022-12-07T10:54:39;28.35;;;12.32;;
5774;SDS011;2913;51.120;6.772;2022-12-07T10:57:32;28.63;;;14.05;;
5774;SDS011;2913;51.120;6.772;2022-12-07T11:00:09;26.48;;;13.52;;
5774;SDS011;2913;51.120;6.772;2022-12-07T11:08:05;21.50;;;12.20;;
5774;SDS011;2913;51.120;6.772;2022-12-07T11:13:21;28.13;;;12.80;;
5774;SDS011;2913;51.120;6.772;2022-12-07T11:16:02;25.10;;;12.35;;
5774;SDS011;2913;51.120;6.772;2022-12-07T11:21:32;25.77;;;11.00;;
5774;SDS011;2913;51.120;6.772;2022-12-07T11:24:18;30.75;;;13.25;;
5774;SDS011;2913;51.120;6.772;2022-12-07T11:29:51;30.27;;;13.98;;
5774;SDS011;2913;51.120;6.772;2022-12-07T11:38:17;24.00;;;11.15;;
5774;SDS011;2913;51.120;6.772;2022-12-07T11:40:50;30.50;;;13.88;;
5774;SDS011;2913;51.120;6.772;2022-12-07T11:43:26;21.65;;;10.77;;
5774;SDS011;2913;51.120;6.772;2022-12-07T11:51:33;23.65;;;11.05;;
5774;SDS011;2913;51.120;6.772;2022-12-07T11:54:11;26.00;;;11.02;;
5774;SDS011;2913;51.120;6.772;2022-12-07T11:56:45;26.48;;;13.23;;
5774;SDS011;2913;51.120;6.772;2022-12-07T11:59:38;31.13;;;12.65;;
5774;SDS011;2913;51.120;6.772;2022-12-07T12:02:11;34.30;;;13.02;;
5774;SDS011;2913;51.120;6.772;2022-12-07T12:07:21;26.08;;;10.98;;
5774;SDS011;2913;51.120;6.772;2022-12-07T12:10:02;26.88;;;11.82;;
5774;SDS011;2913;51.120;6.772;2022-12-07T12:21:26;25.98;;;10.35;;
5774;SDS011;2913;51.120;6.772;2022-12-07T12:24:01;29.30;;;10.75;;
5774;SDS011;2913;51.120;6.772;2022-12-07T12:26:37;21.73;;;10.77;;
5774;SDS011;2913;51.120;6.772;2022-12-07T12:29:06;22.20;;;10.27;;
5774;SDS011;2913;51.120;6.772;2022-12-07T12:31:46;23.27;;;10.80;;
5774;SDS011;2913;51.120;6.772;2022-12-07T12:38:21;21.63;;;10.35;;
5774;SDS011;2913;51.120;6.772;2022-12-07T12:42:54;30.05;;;9.15;;
5774;SDS011;2913;51.120;6.772;2022-12-07T12:45:21;22.60;;;9.00;;
5774;SDS011;2913;51.120;6.772;2022-12-07T12:47:56;23.55;;;11.25;;
5774;SDS011;2913;51.120;6.772;2022-12-07T12:53:03;18.67;;;8.63;;
5774;SDS011;2913;51.120;6.772;2022-12-07T13:00:42;14.93;;;7.32;;
5774;SDS011;2913;51.120;6.772;2022-12-07T13:03:21;22.08;;;7.55;;
5774;SDS011;2913;51.120;6.772;2022-12-07T13:06:16;15.07;;;6.80;;
5774;SDS011;2913;51.120;6.772;2022-12-07T13:08:49;15.82;;;6.45;;
5774;SDS011;2913;51.120;6.772;2022-12-07T13:11:38;18.95;;;7.90;;
5774;SDS011;2913;51.120;6.772;2022-12-07T13:17:11;20.05;;;7.97;;
5774;SDS011;2913;51.120;6.772;2022-12-07T13:20:06;18.65;;;8.90;;
5774;SDS011;2913;51.120;6.772;2022-12-07T13:27:39;19.45;;;7.68;;
5774;SDS011;2913;51.120;6.772;2022-12-07T13:30:15;20.77;;;7.30;;
5774;SDS011;2913;51.120;6.772;2022-12-07T13:32:42;19.73;;;7.25;;
5774;SDS011;2913;51.120;6.772;2022-12-07T13:35:32;16.95;;;7.50;;
5774;SDS011;2913;51.120;6.772;2022-12-07T13:38:14;20.83;;;7.38;;
5774;SDS011;2913;51.120;6.772;2022-12-07T13:41:03;19.77;;;7.57;;
5774;SDS011;2913;51.120;6.772;2022-12-07T13:46:14;15.77;;;7.10;;
5774;SDS011;2913;51.120;6.772;2022-12-07T13:51:16;18.27;;;7.53;;
5774;SDS011;2913;51.120;6.772;2022-12-07T13:53:48;13.45;;;7.40;;
5774;SDS011;2913;51.120;6.772;2022-12-07T13:56:15;24.30;;;8.95;;
5774;SDS011;2913;51.120;6.772;2022-12-07T13:58:44;26.02;;;7.82;;
5774;SDS011;2913;51.120;6.772;2022-12-07T14:01:12;17.08;;;7.00;;
5774;SDS011;2913;51.120;6.772;2022-12-07T14:03:38;20.70;;;7.03;;
5774;SDS011;2913;51.120;6.772;2022-12-07T14:06:06;21.73;;;8.70;;
5774;SDS011;2913;51.120;6.772;2022-12-07T14:08:40;17.20;;;7.53;;
5774;SDS011;2913;51.120;6.772;2022-12-07T14:11:18;23.50;;;8.73;;
5774;SDS011;2913;51.120;6.772;2022-12-07T14:18:52;23.30;;;8.50;;
5774;SDS011;2913;51.120;6.772;2022-12-07T14:21:20;22.98;;;8.32;;
5774;SDS011;2913;51.120;6.772;2022-12-07T14:26:38;24.33;;;8.40;;
5774;SDS011;2913;51.120;6.772;2022-12-07T14:35:11;18.52;;;8.05;;
5774;SDS011;2913;51.120;6.772;2022-12-07T14:37:38;18.40;;;7.50;;
5774;SDS011;2913;51.120;6.772;2022-12-07T14:40:05;19.63;;;8.30;;
5774;SDS011;2913;51.120;6.772;2022-12-07T14:42:34;22.55;;;9.23;;
5774;SDS011;2913;51.120;6.772;2022-12-07T14:45:03;17.73;;;8.80;;
5774;SDS011;2913;51.120;6.772;2022-12-07T14:47:29;24.98;;;11.32;;
5774;SDS011;2913;51.120;6.772;2022-12-07T14:49:54;26.52;;;11.73;;
5774;SDS011;2913;51.120;6.772;2022-12-07T14:52:24;25.30;;;9.40;;
5774;SDS011;2913;51.120;6.772;2022-12-07T14:54:55;24.70;;;9.75;;
5774;SDS011;2913;51.120;6.772;2022-12-07T14:57:21;22.08;;;10.00;;
5774;SDS011;2913;51.120;6.772;2022-12-07T14:59:47;20.38;;;8.18;;
5774;SDS011;2913;51.120;6.772;2022-12-07T15:02:16;20.92;;;7.07;;
5774;SDS011;2913;51.120;6.772;2022-12-07T15:04:42;14.23;;;7.10;;
5774;SDS011;2913;51.120;6.772;2022-12-07T15:07:20;14.00;;;6.88;;
5774;SDS011;2913;51.120;6.772;2022-12-07T15:09:46;16.65;;;7.05;;
5774;SDS011;2913;51.120;6.772;2022-12-07T15:12:13;18.40;;;7.35;;
5774;SDS011;2913;51.120;6.772;2022-12-07T15:14:41;15.40;;;7.35;;
5774;SDS011;2913;51.120;6.772;2022-12-07T15:17:07;18.33;;;6.50;;
5774;SDS011;2913;51.120;6.772;2022-12-07T15:19:36;12.65;;;6.50;;
5774;SDS011;2913;51.120;6.772;2022-12-07T15:22:02;14.48;;;6.70;;
5774;SDS011;2913;51.120;6.772;2022-12-07T15:24:27;15.70;;;6.28;;
5774;SDS011;2913;51.120;6.772;2022-12-07T15:26:53;11.85;;;5.78;;
5774;SDS011;2913;51.120;6.772;2022-12-07T15:29:19;10.45;;;5.18;;
5774;SDS011;2913;51.120;6.772;2022-12-07T15:31:48;13.02;;;5.03;;
5774;SDS011;2913;51.120;6.772;2022-12-07T15:34:15;12.40;;;5.13;;
5774;SDS011;2913;51.120;6.772;2022-12-07T15:36:41;11.75;;;4.88;;
5774;SDS011;2913;51.120;6.772;2022-12-07T15:39:06;7.20;;;4.38;;
5774;SDS011;2913;51.120;6.772;2022-12-07T15:41:38;9.70;;;4.00;;
5774;SDS011;2913;51.120;6.772;2022-12-07T15:44:03;15.65;;;4.78;;
5774;SDS011;2913;51.120;6.772;2022-12-07T15:46:48;13.45;;;4.80;;
5774;SDS011;2913;51.120;6.772;2022-12-07T15:49:16;10.85;;;4.43;;
5774;SDS011;2913;51.120;6.772;2022-12-07T15:51:45;10.68;;;4.13;;
5774;SDS011;2913;51.120;6.772;2022-12-07T15:54:21;10.57;;;4.55;;
5774;SDS011;2913;51.120;6.772;2022-12-07T15:56:51;13.48;;;4.53;;
5774;SDS011;2913;51.120;6.772;2022-12-07T15:59:17;13.45;;;5.47;;
5774;SDS011;2913;51.120;6.772;2022-12-07T16:01:43;15.30;;;5.97;;
5774;SDS011;2913;51.120;6.772;2022-12-07T16:04:09;12.07;;;6.47;;
5774;SDS011;2913;51.120;6.772;2022-12-07T16:06:35;13.30;;;6.32;;
5774;SDS011;2913;51.120;6.772;2022-12-07T16:09:01;16.40;;;6.40;;
5774;SDS011;2913;51.120;6.772;2022-12-07T16:11:27;13.90;;;7.68;;
5774;SDS011;2913;51.120;6.772;2022-12-07T16:13:53;23.50;;;6.88;;
5774;SDS011;2913;51.120;6.772;2022-12-07T16:16:18;13.55;;;8.20;;
5774;SDS011;2913;51.120;6.772;2022-12-07T16:18:46;21.92;;;9.63;;
5774;SDS011;2913;51.120;6.772;2022-12-07T16:21:16;19.90;;;7.35;;
5774;SDS011;2913;51.120;6.772;2022-12-07T16:23:44;20.52;;;8.30;;
5774;SDS011;2913;51.120;6.772;2022-12-07T16:26:12;15.57;;;7.50;;
5774;SDS011;2913;51.120;6.772;2022-12-07T16:28:43;15.75;;;7.72;;
5774;SDS011;2913;51.120;6.772;2022-12-07T16:31:17;18.20;;;7.60;;
5774;SDS011;2913;51.120;6.772;2022-12-07T16:33:44;16.55;;;7.75;;
5774;SDS011;2913;51.120;6.772;2022-12-07T16:36:10;19.90;;;8.02;;
5774;SDS011;2913;51.120;6.772;2022-12-07T16:38:40;16.60;;;8.38;;
5774;SDS011;2913;51.120;6.772;2022-12-07T16:41:07;24.63;;;8.32;;
5774;SDS011;2913;51.120;6.772;2022-12-07T16:43:33;20.05;;;9.15;;
5774;SDS011;2913;51.120;6.772;2022-12-07T16:45:59;16.17;;;8.30;;
5774;SDS011;2913;51.120;6.772;2022-12-07T16:48:27;24.30;;;8.15;;
5774;SDS011;2913;51.120;6.772;2022-12-07T16:50:53;18.25;;;9.15;;
5774;SDS011;2913;51.120;6.772;2022-12-07T16:53:21;22.73;;;8.73;;
5774;SDS011;2913;51.120;6.772;2022-12-07T16:55:52;21.25;;;8.82;;
5774;SDS011;2913;51.120;6.772;2022-12-07T16:58:17;26.15;;;9.00;;
5774;SDS011;2913;51.120;6.772;2022-12-07T17:00:45;16.55;;;8.05;;
5774;SDS011;2913;51.120;6.772;2022-12-07T17:03:14;21.85;;;9.00;;
5774;SDS011;2913;51.120;6.772;2022-12-07T17:05:45;22.60;;;10.18;;
5774;SDS011;2913;51.120;6.772;2022-12-07T17:08:11;23.48;;;9.75;;
5774;SDS011;2913;51.120;6.772;2022-12-07T17:10:39;25.95;;;9.05;;
5774;SDS011;2913;51.120;6.772;2022-12-07T17:13:07;22.48;;;10.57;;
5774;SDS011;2913;51.120;6.772;2022-12-07T17:15:59;21.48;;;10.40;;
5774;SDS011;2913;51.120;6.772;2022-12-07T17:18:27;21.08;;;10.52;;
5774;SDS011;2913;51.120;6.772;2022-12-07T17:21:03;18.00;;;10.20;;
5774;SDS011;2913;51.120;6.772;2022-12-07T17:23:36;26.98;;;10.77;;
5774;SDS011;2913;51.120;6.772;2022-12-07T17:26:11;19.52;;;10.73;;